PWSweather.com
Personal Weather Stations
Station Observations
BARMORENO
El Ranal, Torre Del CampoES 23640

El RanalTorre Del CampoES 23640

Lat: 37.7683675, Lon: -3.9027072

Elevation: 2198.162

Station Type: PCE-FWS 20

http://www.bartolomemoreno.com/tiempo

Latest ConditionsUpdated 5:35:03 AM GMT+01:01 Saturday, Aug 18, 2018
Currently Today's Max Today's Min Today's Average
Temperature 72.9°F22.7°C 81.1°F27.3°C 72.7°F22.6°C 76.6°F24.8°C
Dew Point 60.4°F15.8°C 61.3°F16.3°C 58.3°F14.6°C 60.0°F15.6°C
Winds 4.2 mph S6.8 kmh S 5.3 mph -8.5 kmh - - 2.9 mph 4.7 kmh
Wind Gusts 6.9 mph11.1 kmh 9.2 mph14.8 kmh - -
Humidity 65% 66% 46% 57%
Pressure 29.97 in1014.9 mb 29.97 in1014.9 mb 29.96 in1014.6 mb -
Hour Temp Dew Point Humidity Winds Wind Gusts Pressure Precip Precip Rate Daily Precip Total
05:35 AM 72.9°F22.7°C 60.4°F15.8°C 65% 4.2 mph S6.8 kmh S 6.9 mph11.1 kmh 29.97 in1014.9 mb 0.00 in0.0 mm 0.00 in0.0 mm 0.00 in0.0 mm
05:30 AM 72.9°F22.7°C 60.4°F15.8°C 65% 4.5 mph S7.2 kmh S 7.6 mph12.2 kmh 29.97 in1014.9 mb 0.00 in0.0 mm 0.00 in0.0 mm 0.00 in0.0 mm
05:25 AM 72.9°F22.7°C 60.4°F15.8°C 65% 4.8 mph S7.7 kmh S 7.6 mph12.2 kmh 29.97 in1014.9 mb 0.00 in0.0 mm 0.00 in0.0 mm 0.00 in0.0 mm
05:20 AM 73.0°F22.8°C 60.2°F15.7°C 64% 5.3 mph S8.5 kmh S 8.3 mph13.4 kmh 29.97 in1014.9 mb 0.00 in0.0 mm 0.00 in0.0 mm 0.00 in0.0 mm
05:15 AM 73.4°F23.0°C 61.0°F16.1°C 65% 5.2 mph S8.4 kmh S 8.3 mph13.4 kmh 29.97 in1014.9 mb 0.00 in0.0 mm 0.00 in0.0 mm 0.00 in0.0 mm
05:10 AM 73.4°F23.0°C 61.0°F16.1°C 65% 4.3 mph SSE6.9 kmh SSE 8.3 mph13.4 kmh 29.97 in1014.9 mb 0.00 in0.0 mm 0.00 in0.0 mm 0.00 in0.0 mm
05:05 AM 73.2°F22.9°C 60.8°F16.0°C 65% 3.8 mph S6.1 kmh S 6.9 mph11.1 kmh 29.97 in1014.9 mb 0.00 in0.0 mm 0.00 in0.0 mm 0.00 in0.0 mm
05:00 AM 73.2°F22.9°C 60.8°F16.0°C 65% 3.4 mph S5.5 kmh S 6.9 mph11.1 kmh 29.97 in1014.9 mb 0.00 in0.0 mm 0.00 in0.0 mm 0.00 in0.0 mm
04:55 AM 72.9°F22.7°C 60.4°F15.8°C 65% 2.8 mph S4.5 kmh S 5.4 mph8.7 kmh 29.97 in1014.9 mb 0.00 in0.0 mm 0.00 in0.0 mm 0.00 in0.0 mm
04:50 AM 72.7°F22.6°C 60.7°F15.9°C 66% 2.2 mph S3.5 kmh S 5.4 mph8.7 kmh 29.97 in1014.9 mb 0.00 in0.0 mm 0.00 in0.0 mm 0.00 in0.0 mm
04:45 AM 72.7°F22.6°C 60.7°F15.9°C 66% 2.7 mph S4.3 kmh S 6.0 mph9.7 kmh 29.97 in1014.9 mb 0.00 in0.0 mm 0.00 in0.0 mm 0.00 in0.0 mm
04:40 AM 72.7°F22.6°C 60.7°F15.9°C 66% 3.8 mph S6.1 kmh S 7.6 mph12.2 kmh 29.97 in1014.9 mb 0.00 in0.0 mm 0.00 in0.0 mm 0.00 in0.0 mm
04:35 AM 73.0°F22.8°C 60.6°F15.9°C 65% 4.2 mph S6.8 kmh S 7.6 mph12.2 kmh 29.97 in1014.9 mb 0.00 in0.0 mm 0.00 in0.0 mm 0.00 in0.0 mm
04:30 AM 73.2°F22.9°C 60.8°F16.0°C 65% 3.2 mph S5.1 kmh S 7.6 mph12.2 kmh 29.97 in1014.9 mb 0.00 in0.0 mm 0.00 in0.0 mm 0.00 in0.0 mm
04:25 AM 73.4°F23.0°C 61.0°F16.1°C 65% 2.0 mph S3.2 kmh S 4.5 mph7.2 kmh 29.97 in1014.9 mb 0.00 in0.0 mm 0.00 in0.0 mm 0.00 in0.0 mm
04:20 AM 73.4°F23.0°C 61.0°F16.1°C 65% 1.9 mph S3.1 kmh S 3.8 mph6.1 kmh 29.97 in1014.9 mb 0.00 in0.0 mm 0.00 in0.0 mm 0.00 in0.0 mm
04:15 AM 73.8°F23.2°C 61.3°F16.3°C 65% 2.1 mph S3.4 kmh S 3.8 mph6.1 kmh 29.97 in1014.9 mb 0.00 in0.0 mm 0.00 in0.0 mm 0.00 in0.0 mm
04:10 AM 74.1°F23.4°C 61.2°F16.2°C 64% 1.9 mph S3.1 kmh S 3.8 mph6.1 kmh 29.97 in1014.9 mb 0.00 in0.0 mm 0.00 in0.0 mm 0.00 in0.0 mm
04:05 AM 74.1°F23.4°C 61.2°F16.2°C 64% 2.0 mph S3.2 kmh S 4.5 mph7.2 kmh 29.97 in1014.9 mb 0.00 in0.0 mm 0.00 in0.0 mm 0.00 in0.0 mm
04:00 AM 74.3°F23.5°C 60.9°F16.1°C 63% 2.5 mph S4.0 kmh S 6.0 mph9.7 kmh 29.97 in1014.9 mb 0.00 in0.0 mm 0.00 in0.0 mm 0.00 in0.0 mm
03:55 AM 74.5°F23.6°C 61.1°F16.2°C 63% 3.2 mph S5.1 kmh S 6.9 mph11.1 kmh 29.97 in1014.9 mb 0.00 in0.0 mm 0.00 in0.0 mm 0.00 in0.0 mm
03:50 AM 74.5°F23.6°C 61.1°F16.2°C 63% 3.5 mph S5.6 kmh S 6.9 mph11.1 kmh 29.96 in1014.6 mb 0.00 in0.0 mm 0.00 in0.0 mm 0.00 in0.0 mm
03:45 AM 74.5°F23.6°C 61.1°F16.2°C 63% 3.5 mph S5.6 kmh S 6.9 mph11.1 kmh 29.96 in1014.6 mb 0.00 in0.0 mm 0.00 in0.0 mm 0.00 in0.0 mm
03:40 AM 74.5°F23.6°C 60.6°F15.9°C 62% 3.9 mph S6.3 kmh S 6.9 mph11.1 kmh 29.96 in1014.6 mb 0.00 in0.0 mm 0.00 in0.0 mm 0.00 in0.0 mm
03:35 AM 74.5°F23.6°C 61.1°F16.2°C 63% 4.0 mph S6.4 kmh S 6.9 mph11.1 kmh 29.96 in1014.6 mb 0.00 in0.0 mm 0.00 in0.0 mm 0.00 in0.0 mm
03:30 AM 74.5°F23.6°C 61.1°F16.2°C 63% 3.8 mph S6.1 kmh S 6.0 mph9.7 kmh 29.96 in1014.6 mb 0.00 in0.0 mm 0.00 in0.0 mm 0.00 in0.0 mm
03:25 AM 74.7°F23.7°C 60.8°F16.0°C 62% 4.0 mph S6.4 kmh S 8.3 mph13.4 kmh 29.96 in1014.6 mb 0.00 in0.0 mm 0.00 in0.0 mm 0.00 in0.0 mm
03:20 AM 74.8°F23.8°C 61.0°F16.1°C 62% 4.2 mph S6.8 kmh S 8.3 mph13.4 kmh 29.96 in1014.6 mb 0.00 in0.0 mm 0.00 in0.0 mm 0.00 in0.0 mm
03:15 AM 74.8°F23.8°C 61.0°F16.1°C 62% 3.5 mph S5.6 kmh S 6.0 mph9.7 kmh 29.96 in1014.6 mb 0.00 in0.0 mm 0.00 in0.0 mm 0.00 in0.0 mm
03:10 AM 75.0°F23.9°C 61.2°F16.2°C 62% 2.6 mph S4.2 kmh S 5.4 mph8.7 kmh 29.96 in1014.6 mb 0.00 in0.0 mm 0.00 in0.0 mm 0.00 in0.0 mm
03:05 AM 75.2°F24.0°C 60.4°F15.8°C 60% 2.3 mph S3.7 kmh S 4.5 mph7.2 kmh 29.97 in1014.9 mb 0.00 in0.0 mm 0.00 in0.0 mm 0.00 in0.0 mm
03:00 AM 75.2°F24.0°C 60.4°F15.8°C 60% 2.1 mph S3.4 kmh S 4.5 mph7.2 kmh 29.96 in1014.6 mb 0.00 in0.0 mm 0.00 in0.0 mm 0.00 in0.0 mm
02:55 AM 75.2°F24.0°C 60.4°F15.8°C 60% 2.0 mph S3.2 kmh S 5.4 mph8.7 kmh 29.97 in1014.9 mb 0.00 in0.0 mm 0.00 in0.0 mm 0.00 in0.0 mm
02:50 AM 75.4°F24.1°C 60.1°F15.6°C 59% 2.2 mph S3.5 kmh S 5.4 mph8.7 kmh 29.96 in1014.6 mb 0.00 in0.0 mm 0.00 in0.0 mm 0.00 in0.0 mm
02:45 AM 75.7°F24.3°C 59.9°F15.5°C 58% 2.1 mph S3.4 kmh S 4.5 mph7.2 kmh 29.96 in1014.6 mb 0.00 in0.0 mm 0.00 in0.0 mm 0.00 in0.0 mm
02:40 AM 76.3°F24.6°C 60.0°F15.6°C 57% 2.0 mph S3.2 kmh S 3.8 mph6.1 kmh 29.96 in1014.6 mb 0.00 in0.0 mm 0.00 in0.0 mm 0.00 in0.0 mm
02:35 AM 77.4°F25.2°C 60.0°F15.6°C 55% 1.8 mph S2.9 kmh S 3.8 mph6.1 kmh 29.96 in1014.6 mb 0.00 in0.0 mm 0.00 in0.0 mm 0.00 in0.0 mm
02:30 AM 78.1°F25.6°C 60.1°F15.6°C 54% 1.0 mph SSE1.6 kmh SSE 3.8 mph6.1 kmh 29.96 in1014.6 mb 0.00 in0.0 mm 0.00 in0.0 mm 0.00 in0.0 mm
02:25 AM 78.8°F26.0°C 59.7°F15.4°C 52% 0.6 mph S1.0 kmh S 3.1 mph5.0 kmh 29.96 in1014.6 mb 0.00 in0.0 mm 0.00 in0.0 mm 0.00 in0.0 mm
02:20 AM 79.0°F26.1°C 59.9°F15.5°C 52% 1.7 mph SW2.7 kmh SW 3.8 mph6.1 kmh 29.96 in1014.6 mb 0.00 in0.0 mm 0.00 in0.0 mm 0.00 in0.0 mm
02:15 AM 79.2°F26.2°C 59.5°F15.3°C 51% 2.5 mph SW4.0 kmh SW 5.4 mph8.7 kmh 29.96 in1014.6 mb 0.00 in0.0 mm 0.00 in0.0 mm 0.00 in0.0 mm
02:10 AM 79.2°F26.2°C 59.0°F15.0°C 50% 2.9 mph SW4.7 kmh SW 6.0 mph9.7 kmh 29.96 in1014.6 mb 0.00 in0.0 mm 0.00 in0.0 mm 0.00 in0.0 mm
02:05 AM 79.3°F26.3°C 59.1°F15.1°C 50% 2.7 mph SSW4.3 kmh SSW 6.0 mph9.7 kmh 29.96 in1014.6 mb 0.00 in0.0 mm 0.00 in0.0 mm 0.00 in0.0 mm
02:00 AM 79.5°F26.4°C 59.3°F15.2°C 50% 2.8 mph SW4.5 kmh SW 6.0 mph9.7 kmh 29.96 in1014.6 mb 0.00 in0.0 mm 0.00 in0.0 mm 0.00 in0.0 mm
01:55 AM 79.5°F26.4°C 59.3°F15.2°C 50% 3.4 mph SW5.5 kmh SW 6.0 mph9.7 kmh 29.96 in1014.6 mb 0.00 in0.0 mm 0.00 in0.0 mm 0.00 in0.0 mm
01:50 AM 79.7°F26.5°C 58.9°F14.9°C 49% 3.2 mph SW5.1 kmh SW 6.0 mph9.7 kmh 29.96 in1014.6 mb 0.00 in0.0 mm 0.00 in0.0 mm 0.00 in0.0 mm
01:45 AM 79.7°F26.5°C 59.5°F15.3°C 50% 3.0 mph SW4.8 kmh SW 6.0 mph9.7 kmh 29.96 in1014.6 mb 0.00 in0.0 mm 0.00 in0.0 mm 0.00 in0.0 mm
01:40 AM 79.5°F26.4°C 59.3°F15.2°C 50% 2.7 mph SW4.3 kmh SW 6.0 mph9.7 kmh 29.96 in1014.6 mb 0.00 in0.0 mm 0.00 in0.0 mm 0.00 in0.0 mm
01:35 AM 79.5°F26.4°C 59.3°F15.2°C 50% 2.5 mph SW4.0 kmh SW 4.5 mph7.2 kmh 29.96 in1014.6 mb 0.00 in0.0 mm 0.00 in0.0 mm 0.00 in0.0 mm
01:30 AM 79.5°F26.4°C 59.3°F15.2°C 50% 2.5 mph SW4.0 kmh SW 5.4 mph8.7 kmh 29.96 in1014.6 mb 0.00 in0.0 mm 0.00 in0.0 mm 0.00 in0.0 mm
01:25 AM 79.3°F26.3°C 59.1°F15.1°C 50% 2.4 mph W3.9 kmh W 5.4 mph8.7 kmh 29.96 in1014.6 mb 0.00 in0.0 mm 0.00 in0.0 mm 0.00 in0.0 mm
01:20 AM 79.0°F26.1°C 59.3°F15.2°C 51% 2.0 mph NW3.2 kmh NW 5.4 mph8.7 kmh 29.96 in1014.6 mb 0.00 in0.0 mm 0.00 in0.0 mm 0.00 in0.0 mm
01:15 AM 78.8°F26.0°C 59.2°F15.1°C 51% 1.7 mph WNW2.7 kmh WNW 3.1 mph5.0 kmh 29.96 in1014.6 mb 0.00 in0.0 mm 0.00 in0.0 mm 0.00 in0.0 mm
01:10 AM 79.2°F26.2°C 59.5°F15.3°C 51% 1.6 mph WSW2.6 kmh WSW 3.1 mph5.0 kmh 29.97 in1014.9 mb 0.00 in0.0 mm 0.00 in0.0 mm 0.00 in0.0 mm
01:05 AM 79.3°F26.3°C 59.1°F15.1°C 50% 1.5 mph WSW2.4 kmh WSW 3.8 mph6.1 kmh 29.96 in1014.6 mb 0.00 in0.0 mm 0.00 in0.0 mm 0.00 in0.0 mm
01:00 AM 79.3°F26.3°C 59.1°F15.1°C 50% 1.3 mph W2.1 kmh W 3.8 mph6.1 kmh 29.97 in1014.9 mb 0.00 in0.0 mm 0.00 in0.0 mm 0.00 in0.0 mm
12:55 AM 79.5°F26.4°C 59.3°F15.2°C 50% 1.4 mph SW2.3 kmh SW 4.5 mph7.2 kmh 29.97 in1014.9 mb 0.00 in0.0 mm 0.00 in0.0 mm 0.00 in0.0 mm
12:50 AM 79.5°F26.4°C 59.3°F15.2°C 50% 1.8 mph SSW2.9 kmh SSW 4.5 mph7.2 kmh 29.97 in1014.9 mb 0.00 in0.0 mm 0.00 in0.0 mm 0.00 in0.0 mm
12:45 AM 79.9°F26.6°C 59.1°F15.1°C 49% 2.5 mph SW4.0 kmh SW 6.0 mph9.7 kmh 29.97 in1014.9 mb 0.00 in0.0 mm 0.00 in0.0 mm 0.00 in0.0 mm
12:40 AM 80.1°F26.7°C 58.6°F14.8°C 48% 2.7 mph SSW4.3 kmh SSW 6.0 mph9.7 kmh 29.97 in1014.9 mb 0.00 in0.0 mm 0.00 in0.0 mm 0.00 in0.0 mm
12:35 AM 80.2°F26.8°C 58.8°F14.9°C 48% 2.6 mph S4.2 kmh S 5.4 mph8.7 kmh 29.97 in1014.9 mb 0.00 in0.0 mm 0.00 in0.0 mm 0.00 in0.0 mm
12:30 AM 80.2°F26.8°C 59.4°F15.2°C 49% 3.2 mph S5.1 kmh S 6.9 mph11.1 kmh 29.97 in1014.9 mb 0.00 in0.0 mm 0.00 in0.0 mm 0.00 in0.0 mm
12:25 AM 80.4°F26.9°C 59.0°F15.0°C 48% 3.6 mph S5.8 kmh S 9.2 mph14.8 kmh 29.97 in1014.9 mb 0.00 in0.0 mm 0.00 in0.0 mm 0.00 in0.0 mm
12:20 AM 80.6°F27.0°C 58.5°F14.7°C 47% 3.6 mph S5.8 kmh S 9.2 mph14.8 kmh 29.97 in1014.9 mb 0.00 in0.0 mm 0.00 in0.0 mm 0.00 in0.0 mm
12:15 AM 81.0°F27.2°C 58.9°F14.9°C 47% 4.1 mph S6.6 kmh S 9.2 mph14.8 kmh 29.97 in1014.9 mb 0.00 in0.0 mm 0.00 in0.0 mm 0.00 in0.0 mm
12:10 AM 81.1°F27.3°C 58.4°F14.7°C 46% 4.7 mph S7.6 kmh S 9.2 mph14.8 kmh 29.97 in1014.9 mb 0.00 in0.0 mm 0.00 in0.0 mm 0.00 in0.0 mm
12:05 AM 81.1°F27.3°C 58.4°F14.7°C 46% 3.8 mph SSW6.1 kmh SSW 9.2 mph14.8 kmh 29.97 in1014.9 mb 0.00 in0.0 mm 0.00 in0.0 mm 0.00 in0.0 mm
12:00 AM 81.0°F27.2°C 58.3°F14.6°C 46% 3.9 mph SSW6.3 kmh SSW 9.2 mph14.8 kmh 29.97 in1014.9 mb 0.00 in0.0 mm 0.00 in0.0 mm 0.00 in0.0 mm